sensor_id;sensor_type;location;lat;lon;timestamp;temperature;humidity
14893;DHT22;7538;53.626;9.906;2022-12-24T00:01:02;5.80;99.90
14893;DHT22;7538;53.626;9.906;2022-12-24T00:03:28;5.80;99.90
14893;DHT22;7538;53.626;9.906;2022-12-24T00:05:55;5.70;99.90
14893;DHT22;7538;53.626;9.906;2022-12-24T00:08:22;5.70;99.90
14893;DHT22;7538;53.626;9.906;2022-12-24T00:10:50;5.80;99.90
14893;DHT22;7538;53.626;9.906;2022-12-24T00:13:17;5.70;99.90
14893;DHT22;7538;53.626;9.906;2022-12-24T00:15:46;5.60;99.90
14893;DHT22;7538;53.626;9.906;2022-12-24T00:18:13;5.60;99.90
14893;DHT22;7538;53.626;9.906;2022-12-24T00:20:40;5.70;99.90
14893;DHT22;7538;53.626;9.906;2022-12-24T00:23:07;5.70;99.90
14893;DHT22;7538;53.626;9.906;2022-12-24T00:25:34;5.80;99.90
14893;DHT22;7538;53.626;9.906;2022-12-24T00:28:01;5.80;99.90
14893;DHT22;7538;53.626;9.906;2022-12-24T00:30:27;5.70;99.90
14893;DHT22;7538;53.626;9.906;2022-12-24T00:32:56;5.70;99.90
14893;DHT22;7538;53.626;9.906;2022-12-24T00:35:23;5.60;99.90
14893;DHT22;7538;53.626;9.906;2022-12-24T00:37:50;5.70;99.90
14893;DHT22;7538;53.626;9.906;2022-12-24T00:40:18;5.70;99.90
14893;DHT22;7538;53.626;9.906;2022-12-24T00:42:45;5.70;99.90
14893;DHT22;7538;53.626;9.906;2022-12-24T00:45:12;5.70;99.90
14893;DHT22;7538;53.626;9.906;2022-12-24T00:47:39;5.70;99.90
14893;DHT22;7538;53.626;9.906;2022-12-24T00:50:08;5.80;99.90
14893;DHT22;7538;53.626;9.906;2022-12-24T00:52:35;5.70;99.90
14893;DHT22;7538;53.626;9.906;2022-12-24T00:55:02;5.70;99.90
14893;DHT22;7538;53.626;9.906;2022-12-24T00:57:29;5.70;99.90
14893;DHT22;7538;53.626;9.906;2022-12-24T00:59:56;5.70;99.90
14893;DHT22;7538;53.626;9.906;2022-12-24T01:02:23;5.80;99.90
14893;DHT22;7538;53.626;9.906;2022-12-24T01:04:50;5.80;99.90
14893;DHT22;7538;53.626;9.906;2022-12-24T01:07:37;5.80;99.90
14893;DHT22;7538;53.626;9.906;2022-12-24T01:10:05;5.80;99.90
14893;DHT22;7538;53.626;9.906;2022-12-24T01:12:32;5.70;99.90
14893;DHT22;7538;53.626;9.906;2022-12-24T01:14:59;5.70;99.90
14893;DHT22;7538;53.626;9.906;2022-12-24T01:17:26;5.60;99.90
14893;DHT22;7538;53.626;9.906;2022-12-24T01:19:52;5.60;99.90
14893;DHT22;7538;53.626;9.906;2022-12-24T01:22:19;5.70;99.90
14893;DHT22;7538;53.626;9.906;2022-12-24T01:24:48;5.70;99.90
14893;DHT22;7538;53.626;9.906;2022-12-24T01:27:14;5.70;99.90
14893;DHT22;7538;53.626;9.906;2022-12-24T01:29:41;5.70;99.90
14893;DHT22;7538;53.626;9.906;2022-12-24T01:32:08;5.70;99.90
14893;DHT22;7538;53.626;9.906;2022-12-24T01:34:35;5.70;99.90
14893;DHT22;7538;53.626;9.906;2022-12-24T01:37:02;5.70;99.90
14893;DHT22;7538;53.626;9.906;2022-12-24T01:39:29;5.70;99.90
14893;DHT22;7538;53.626;9.906;2022-12-24T01:41:57;5.70;99.90
14893;DHT22;7538;53.626;9.906;2022-12-24T01:44:45;5.70;99.90
14893;DHT22;7538;53.626;9.906;2022-12-24T01:47:16;5.70;99.90
14893;DHT22;7538;53.626;9.906;2022-12-24T01:49:47;5.80;99.90
14893;DHT22;7538;53.626;9.906;2022-12-24T01:52:17;5.70;99.90
14893;DHT22;7538;53.626;9.906;2022-12-24T01:54:48;5.70;99.90
14893;DHT22;7538;53.626;9.906;2022-12-24T01:57:21;5.80;99.90
14893;DHT22;7538;53.626;9.906;2022-12-24T01:59:54;5.70;99.90
14893;DHT22;7538;53.626;9.906;2022-12-24T02:02:22;5.80;99.90
14893;DHT22;7538;53.626;9.906;2022-12-24T02:04:54;5.80;99.90
14893;DHT22;7538;53.626;9.906;2022-12-24T02:07:22;6.00;99.90
14893;DHT22;7538;53.626;9.906;2022-12-24T02:09:54;5.90;99.90
14893;DHT22;7538;53.626;9.906;2022-12-24T02:12:23;5.90;99.90
14893;DHT22;7538;53.626;9.906;2022-12-24T02:14:51;5.60;99.90
14893;DHT22;7538;53.626;9.906;2022-12-24T02:17:28;5.90;99.90
14893;DHT22;7538;53.626;9.906;2022-12-24T02:20:29;7.60;99.90
14893;DHT22;7538;53.626;9.906;2022-12-24T02:23:27;5.90;99.90
14893;DHT22;7538;53.626;9.906;2022-12-24T02:26:12;5.90;99.90
14893;DHT22;7538;53.626;9.906;2022-12-24T02:29:04;5.80;99.90
14893;DHT22;7538;53.626;9.906;2022-12-24T02:31:39;5.80;99.90
14893;DHT22;7538;53.626;9.906;2022-12-24T02:34:10;5.70;99.90
14893;DHT22;7538;53.626;9.906;2022-12-24T02:36:43;5.70;99.90
14893;DHT22;7538;53.626;9.906;2022-12-24T02:39:15;5.80;99.90
14893;DHT22;7538;53.626;9.906;2022-12-24T02:41:49;5.80;99.90
14893;DHT22;7538;53.626;9.906;2022-12-24T02:44:36;5.80;99.90
14893;DHT22;7538;53.626;9.906;2022-12-24T02:47:06;5.80;99.90
14893;DHT22;7538;53.626;9.906;2022-12-24T02:49:34;5.80;99.90
14893;DHT22;7538;53.626;9.906;2022-12-24T02:52:01;5.90;99.90
14893;DHT22;7538;53.626;9.906;2022-12-24T02:54:28;5.90;99.90
14893;DHT22;7538;53.626;9.906;2022-12-24T02:57:06;5.90;99.90
14893;DHT22;7538;53.626;9.906;2022-12-24T02:59:51;5.90;99.90
14893;DHT22;7538;53.626;9.906;2022-12-24T03:02:29;5.90;99.90
14893;DHT22;7538;53.626;9.906;2022-12-24T03:05:06;5.90;99.90
14893;DHT22;7538;53.626;9.906;2022-12-24T03:07:37;5.90;99.90
14893;DHT22;7538;53.626;9.906;2022-12-24T03:10:17;5.90;99.90
14893;DHT22;7538;53.626;9.906;2022-12-24T03:12:48;5.90;99.90
14893;DHT22;7538;53.626;9.906;2022-12-24T03:15:18;5.90;99.90
14893;DHT22;7538;53.626;9.906;2022-12-24T03:17:49;5.90;99.90
14893;DHT22;7538;53.626;9.906;2022-12-24T03:20:21;5.90;99.90
14893;DHT22;7538;53.626;9.906;2022-12-24T03:22:49;5.90;99.90
14893;DHT22;7538;53.626;9.906;2022-12-24T03:25:16;5.90;99.90
14893;DHT22;7538;53.626;9.906;2022-12-24T03:27:43;5.90;99.90
14893;DHT22;7538;53.626;9.906;2022-12-24T03:30:12;5.90;99.90
14893;DHT22;7538;53.626;9.906;2022-12-24T03:32:40;5.90;99.90
14893;DHT22;7538;53.626;9.906;2022-12-24T03:35:09;5.90;99.90
14893;DHT22;7538;53.626;9.906;2022-12-24T03:37:36;5.80;99.90
14893;DHT22;7538;53.626;9.906;2022-12-24T03:40:04;5.90;99.90
14893;DHT22;7538;53.626;9.906;2022-12-24T03:42:32;5.90;99.90
14893;DHT22;7538;53.626;9.906;2022-12-24T03:44:59;5.90;99.90
14893;DHT22;7538;53.626;9.906;2022-12-24T03:47:25;5.90;99.90
14893;DHT22;7538;53.626;9.906;2022-12-24T03:49:52;6.00;99.90
14893;DHT22;7538;53.626;9.906;2022-12-24T03:52:20;6.00;99.90
14893;DHT22;7538;53.626;9.906;2022-12-24T03:54:47;6.00;99.90
14893;DHT22;7538;53.626;9.906;2022-12-24T03:57:14;5.50;99.90
14893;DHT22;7538;53.626;9.906;2022-12-24T03:59:41;6.00;99.90
14893;DHT22;7538;53.626;9.906;2022-12-24T04:02:08;6.00;99.90
14893;DHT22;7538;53.626;9.906;2022-12-24T04:04:34;6.00;99.90
14893;DHT22;7538;53.626;9.906;2022-12-24T04:07:02;5.90;99.90
14893;DHT22;7538;53.626;9.906;2022-12-24T04:09:31;5.90;99.90
14893;DHT22;7538;53.626;9.906;2022-12-24T04:11:57;5.90;99.90
14893;DHT22;7538;53.626;9.906;2022-12-24T04:14:24;5.90;99.90
14893;DHT22;7538;53.626;9.906;2022-12-24T04:16:51;5.90;99.90
14893;DHT22;7538;53.626;9.906;2022-12-24T04:19:18;5.90;99.90
14893;DHT22;7538;53.626;9.906;2022-12-24T04:21:44;5.90;99.90
14893;DHT22;7538;53.626;9.906;2022-12-24T04:24:11;5.90;99.90
14893;DHT22;7538;53.626;9.906;2022-12-24T04:26:39;5.90;99.90
14893;DHT22;7538;53.626;9.906;2022-12-24T04:29:06;5.90;99.90
14893;DHT22;7538;53.626;9.906;2022-12-24T04:31:33;5.80;99.90
14893;DHT22;7538;53.626;9.906;2022-12-24T04:34:00;5.90;99.90
14893;DHT22;7538;53.626;9.906;2022-12-24T04:36:27;5.90;99.90
14893;DHT22;7538;53.626;9.906;2022-12-24T04:38:54;5.90;99.90
14893;DHT22;7538;53.626;9.906;2022-12-24T04:41:22;2.70;99.90
14893;DHT22;7538;53.626;9.906;2022-12-24T04:43:51;5.90;99.90
14893;DHT22;7538;53.626;9.906;2022-12-24T04:46:20;5.80;99.90
14893;DHT22;7538;53.626;9.906;2022-12-24T04:48:50;5.80;99.90
14893;DHT22;7538;53.626;9.906;2022-12-24T04:51:17;5.80;99.90
14893;DHT22;7538;53.626;9.906;2022-12-24T04:53:45;5.70;99.90
14893;DHT22;7538;53.626;9.906;2022-12-24T04:56:12;5.70;99.90
14893;DHT22;7538;53.626;9.906;2022-12-24T04:58:39;5.80;99.90
14893;DHT22;7538;53.626;9.906;2022-12-24T05:01:11;5.80;99.90
14893;DHT22;7538;53.626;9.906;2022-12-24T05:03:39;5.70;99.90
14893;DHT22;7538;53.626;9.906;2022-12-24T05:06:08;5.70;99.90
14893;DHT22;7538;53.626;9.906;2022-12-24T05:08:36;6.30;99.90
14893;DHT22;7538;53.626;9.906;2022-12-24T05:11:04;5.70;99.90
14893;DHT22;7538;53.626;9.906;2022-12-24T05:13:31;5.60;99.90
14893;DHT22;7538;53.626;9.906;2022-12-24T05:15:58;5.60;99.90
14893;DHT22;7538;53.626;9.906;2022-12-24T05:18:26;5.60;99.90
14893;DHT22;7538;53.626;9.906;2022-12-24T05:20:53;5.60;99.90
14893;DHT22;7538;53.626;9.906;2022-12-24T05:23:22;5.50;99.90
14893;DHT22;7538;53.626;9.906;2022-12-24T05:26:13;5.50;99.90
14893;DHT22;7538;53.626;9.906;2022-12-24T05:28:52;5.40;99.90
14893;DHT22;7538;53.626;9.906;2022-12-24T05:31:20;5.50;99.90
14893;DHT22;7538;53.626;9.906;2022-12-24T05:33:49;5.50;99.90
14893;DHT22;7538;53.626;9.906;2022-12-24T05:36:16;5.50;99.90
14893;DHT22;7538;53.626;9.906;2022-12-24T05:38:43;5.50;99.90
14893;DHT22;7538;53.626;9.906;2022-12-24T05:41:09;5.50;99.90
14893;DHT22;7538;53.626;9.906;2022-12-24T05:43:37;5.40;99.90
14893;DHT22;7538;53.626;9.906;2022-12-24T05:46:06;5.40;99.90
14893;DHT22;7538;53.626;9.906;2022-12-24T05:48:33;5.40;99.90
14893;DHT22;7538;53.626;9.906;2022-12-24T05:51:05;5.40;99.90
14893;DHT22;7538;53.626;9.906;2022-12-24T05:53:32;5.40;99.90
14893;DHT22;7538;53.626;9.906;2022-12-24T05:56:03;5.50;99.90
14893;DHT22;7538;53.626;9.906;2022-12-24T05:58:30;5.60;99.90
14893;DHT22;7538;53.626;9.906;2022-12-24T06:00:57;5.60;99.90
14893;DHT22;7538;53.626;9.906;2022-12-24T06:03:24;5.60;99.90
14893;DHT22;7538;53.626;9.906;2022-12-24T06:05:58;5.60;99.90
14893;DHT22;7538;53.626;9.906;2022-12-24T06:08:26;5.60;99.90
14893;DHT22;7538;53.626;9.906;2022-12-24T06:10:55;5.60;99.90
14893;DHT22;7538;53.626;9.906;2022-12-24T06:13:23;5.50;99.90
14893;DHT22;7538;53.626;9.906;2022-12-24T06:15:50;5.50;99.90
14893;DHT22;7538;53.626;9.906;2022-12-24T06:18:17;5.50;99.90
14893;DHT22;7538;53.626;9.906;2022-12-24T06:20:44;5.40;99.90
14893;DHT22;7538;53.626;9.906;2022-12-24T06:23:10;5.40;99.90
14893;DHT22;7538;53.626;9.906;2022-12-24T06:25:39;5.40;99.90
14893;DHT22;7538;53.626;9.906;2022-12-24T06:28:05;5.50;99.90
14893;DHT22;7538;53.626;9.906;2022-12-24T06:30:32;5.50;99.90
14893;DHT22;7538;53.626;9.906;2022-12-24T06:32:59;5.50;99.90
14893;DHT22;7538;53.626;9.906;2022-12-24T06:35:26;5.40;99.90
14893;DHT22;7538;53.626;9.906;2022-12-24T06:37:53;5.40;99.90
14893;DHT22;7538;53.626;9.906;2022-12-24T06:40:20;5.40;99.90
14893;DHT22;7538;53.626;9.906;2022-12-24T06:42:48;5.40;99.90
14893;DHT22;7538;53.626;9.906;2022-12-24T06:45:15;5.40;99.90
14893;DHT22;7538;53.626;9.906;2022-12-24T06:47:42;5.40;99.90
14893;DHT22;7538;53.626;9.906;2022-12-24T06:50:09;5.40;99.90
14893;DHT22;7538;53.626;9.906;2022-12-24T06:52:36;5.40;99.90
14893;DHT22;7538;53.626;9.906;2022-12-24T06:55:03;5.40;99.90
14893;DHT22;7538;53.626;9.906;2022-12-24T06:57:30;5.40;99.90
14893;DHT22;7538;53.626;9.906;2022-12-24T06:59:59;5.40;99.90
14893;DHT22;7538;53.626;9.906;2022-12-24T07:02:26;5.40;99.90
14893;DHT22;7538;53.626;9.906;2022-12-24T07:04:53;5.50;99.90
14893;DHT22;7538;53.626;9.906;2022-12-24T07:07:20;5.40;99.90
14893;DHT22;7538;53.626;9.906;2022-12-24T07:09:47;5.40;99.90
14893;DHT22;7538;53.626;9.906;2022-12-24T07:12:13;5.50;99.90
14893;DHT22;7538;53.626;9.906;2022-12-24T07:14:40;5.50;99.90
14893;DHT22;7538;53.626;9.906;2022-12-24T07:17:08;5.60;99.90
14893;DHT22;7538;53.626;9.906;2022-12-24T07:19:35;5.60;99.90
14893;DHT22;7538;53.626;9.906;2022-12-24T07:22:02;5.50;99.90
14893;DHT22;7538;53.626;9.906;2022-12-24T07:24:29;5.50;99.90
14893;DHT22;7538;53.626;9.906;2022-12-24T07:26:56;2.80;99.90
14893;DHT22;7538;53.626;9.906;2022-12-24T07:29:22;5.40;99.90
14893;DHT22;7538;53.626;9.906;2022-12-24T07:31:49;5.40;99.90
14893;DHT22;7538;53.626;9.906;2022-12-24T07:34:17;5.50;99.90
14893;DHT22;7538;53.626;9.906;2022-12-24T07:36:44;5.50;99.90
14893;DHT22;7538;53.626;9.906;2022-12-24T07:39:11;5.40;99.90
14893;DHT22;7538;53.626;9.906;2022-12-24T07:41:38;5.50;99.90
14893;DHT22;7538;53.626;9.906;2022-12-24T07:44:05;5.40;99.90
14893;DHT22;7538;53.626;9.906;2022-12-24T07:46:31;5.40;99.90
14893;DHT22;7538;53.626;9.906;2022-12-24T07:48:58;5.40;99.90
14893;DHT22;7538;53.626;9.906;2022-12-24T07:51:26;5.40;99.90
14893;DHT22;7538;53.626;9.906;2022-12-24T07:53:53;5.50;99.90
14893;DHT22;7538;53.626;9.906;2022-12-24T07:56:20;5.40;99.90
14893;DHT22;7538;53.626;9.906;2022-12-24T07:58:48;5.40;99.90
14893;DHT22;7538;53.626;9.906;2022-12-24T08:01:15;5.40;99.90
14893;DHT22;7538;53.626;9.906;2022-12-24T08:03:42;5.40;99.90
14893;DHT22;7538;53.626;9.906;2022-12-24T08:06:10;5.50;99.90
14893;DHT22;7538;53.626;9.906;2022-12-24T08:08:38;5.50;99.90
14893;DHT22;7538;53.626;9.906;2022-12-24T08:11:05;5.50;99.90
14893;DHT22;7538;53.626;9.906;2022-12-24T08:13:33;5.50;99.90
14893;DHT22;7538;53.626;9.906;2022-12-24T08:16:00;5.50;99.90
14893;DHT22;7538;53.626;9.906;2022-12-24T08:18:27;5.50;99.90
14893;DHT22;7538;53.626;9.906;2022-12-24T08:20:53;5.60;99.90
14893;DHT22;7538;53.626;9.906;2022-12-24T08:23:21;5.70;99.90
14893;DHT22;7538;53.626;9.906;2022-12-24T08:25:49;5.70;99.90
14893;DHT22;7538;53.626;9.906;2022-12-24T08:28:18;5.60;99.90
14893;DHT22;7538;53.626;9.906;2022-12-24T08:30:46;5.60;99.90
14893;DHT22;7538;53.626;9.906;2022-12-24T08:33:13;6.80;99.90
14893;DHT22;7538;53.626;9.906;2022-12-24T08:35:40;5.60;99.90
14893;DHT22;7538;53.626;9.906;2022-12-24T08:38:12;5.60;99.90
14893;DHT22;7538;53.626;9.906;2022-12-24T08:40:39;5.60;99.90
14893;DHT22;7538;53.626;9.906;2022-12-24T08:43:07;5.50;99.90
14893;DHT22;7538;53.626;9.906;2022-12-24T08:45:35;5.60;99.90
14893;DHT22;7538;53.626;9.906;2022-12-24T08:48:04;5.50;99.90
14893;DHT22;7538;53.626;9.906;2022-12-24T08:50:30;5.50;99.90
14893;DHT22;7538;53.626;9.906;2022-12-24T08:52:57;5.50;99.90
14893;DHT22;7538;53.626;9.906;2022-12-24T08:55:24;5.50;99.90
14893;DHT22;7538;53.626;9.906;2022-12-24T08:57:51;5.50;99.90
14893;DHT22;7538;53.626;9.906;2022-12-24T09:00:20;5.50;99.90
14893;DHT22;7538;53.626;9.906;2022-12-24T09:02:47;5.50;99.90
14893;DHT22;7538;53.626;9.906;2022-12-24T09:05:14;5.50;99.90
14893;DHT22;7538;53.626;9.906;2022-12-24T09:07:40;5.50;99.90
14893;DHT22;7538;53.626;9.906;2022-12-24T09:10:08;5.60;99.90
14893;DHT22;7538;53.626;9.906;2022-12-24T09:12:35;5.60;99.90
14893;DHT22;7538;53.626;9.906;2022-12-24T09:15:03;5.70;99.90
14893;DHT22;7538;53.626;9.906;2022-12-24T09:17:34;5.80;99.90
14893;DHT22;7538;53.626;9.906;2022-12-24T09:20:01;5.80;99.90
14893;DHT22;7538;53.626;9.906;2022-12-24T09:22:28;5.80;99.90
14893;DHT22;7538;53.626;9.906;2022-12-24T09:24:55;5.80;99.90
14893;DHT22;7538;53.626;9.906;2022-12-24T09:27:21;5.80;99.90
14893;DHT22;7538;53.626;9.906;2022-12-24T09:29:48;5.70;99.90
14893;DHT22;7538;53.626;9.906;2022-12-24T09:32:15;5.80;99.90
14893;DHT22;7538;53.626;9.906;2022-12-24T09:34:43;5.80;99.90
14893;DHT22;7538;53.626;9.906;2022-12-24T09:37:10;5.90;99.90
14893;DHT22;7538;53.626;9.906;2022-12-24T09:39:37;6.00;99.90
14893;DHT22;7538;53.626;9.906;2022-12-24T09:42:16;6.00;99.90
14893;DHT22;7538;53.626;9.906;2022-12-24T09:44:48;6.00;99.90
14893;DHT22;7538;53.626;9.906;2022-12-24T09:47:25;6.10;99.90
14893;DHT22;7538;53.626;9.906;2022-12-24T09:49:56;6.00;99.90
14893;DHT22;7538;53.626;9.906;2022-12-24T09:52:29;6.00;99.90
14893;DHT22;7538;53.626;9.906;2022-12-24T09:55:04;6.00;99.90
14893;DHT22;7538;53.626;9.906;2022-12-24T09:57:35;6.10;99.90
14893;DHT22;7538;53.626;9.906;2022-12-24T10:00:10;6.30;99.90
14893;DHT22;7538;53.626;9.906;2022-12-24T10:02:41;6.00;99.90
14893;DHT22;7538;53.626;9.906;2022-12-24T10:05:13;6.10;99.90
14893;DHT22;7538;53.626;9.906;2022-12-24T10:07:46;4.60;99.90
14893;DHT22;7538;53.626;9.906;2022-12-24T10:10:23;6.20;99.90
14893;DHT22;7538;53.626;9.906;2022-12-24T10:13:02;6.20;99.90
14893;DHT22;7538;53.626;9.906;2022-12-24T10:15:35;6.30;99.90
14893;DHT22;7538;53.626;9.906;2022-12-24T10:18:14;6.30;99.90
14893;DHT22;7538;53.626;9.906;2022-12-24T10:20:50;6.40;99.90
14893;DHT22;7538;53.626;9.906;2022-12-24T10:23:23;6.30;99.90
14893;DHT22;7538;53.626;9.906;2022-12-24T10:25:59;6.20;99.90
14893;DHT22;7538;53.626;9.906;2022-12-24T10:28:33;6.20;99.90
14893;DHT22;7538;53.626;9.906;2022-12-24T10:31:04;6.30;99.90
14893;DHT22;7538;53.626;9.906;2022-12-24T10:33:36;6.30;99.90
14893;DHT22;7538;53.626;9.906;2022-12-24T10:36:07;6.40;99.90
14893;DHT22;7538;53.626;9.906;2022-12-24T10:38:36;6.40;99.90
14893;DHT22;7538;53.626;9.906;2022-12-24T10:41:04;6.30;99.90
14893;DHT22;7538;53.626;9.906;2022-12-24T10:43:31;6.30;99.90
14893;DHT22;7538;53.626;9.906;2022-12-24T10:46:00;7.10;99.90
14893;DHT22;7538;53.626;9.906;2022-12-24T10:48:30;4.10;99.90
14893;DHT22;7538;53.626;9.906;2022-12-24T10:51:02;6.50;99.90
14893;DHT22;7538;53.626;9.906;2022-12-24T10:53:39;6.50;99.90
14893;DHT22;7538;53.626;9.906;2022-12-24T10:56:10;6.60;99.90
14893;DHT22;7538;53.626;9.906;2022-12-24T10:58:42;6.60;99.90
14893;DHT22;7538;53.626;9.906;2022-12-24T11:01:10;6.80;99.90
14893;DHT22;7538;53.626;9.906;2022-12-24T11:03:37;6.80;99.90
14893;DHT22;7538;53.626;9.906;2022-12-24T11:06:09;6.90;99.90
14893;DHT22;7538;53.626;9.906;2022-12-24T11:08:39;6.90;99.90
14893;DHT22;7538;53.626;9.906;2022-12-24T11:11:09;7.00;99.90
14893;DHT22;7538;53.626;9.906;2022-12-24T11:13:39;7.40;99.90
14893;DHT22;7538;53.626;9.906;2022-12-24T11:16:13;6.90;99.90
14893;DHT22;7538;53.626;9.906;2022-12-24T11:18:46;7.00;99.90
14893;DHT22;7538;53.626;9.906;2022-12-24T11:21:22;7.10;99.90
14893;DHT22;7538;53.626;9.906;2022-12-24T11:23:53;7.10;99.90
14893;DHT22;7538;53.626;9.906;2022-12-24T11:26:22;7.20;99.90
14893;DHT22;7538;53.626;9.906;2022-12-24T11:29:11;7.30;99.90
14893;DHT22;7538;53.626;9.906;2022-12-24T11:31:40;7.40;99.90
14893;DHT22;7538;53.626;9.906;2022-12-24T11:34:22;10.30;99.90
14893;DHT22;7538;53.626;9.906;2022-12-24T11:36:50;7.50;99.90
14893;DHT22;7538;53.626;9.906;2022-12-24T11:39:21;7.50;99.90
14893;DHT22;7538;53.626;9.906;2022-12-24T11:41:48;7.50;99.90
14893;DHT22;7538;53.626;9.906;2022-12-24T11:44:23;7.50;99.90
14893;DHT22;7538;53.626;9.906;2022-12-24T11:46:51;7.40;99.90
14893;DHT22;7538;53.626;9.906;2022-12-24T11:49:25;7.40;99.90
14893;DHT22;7538;53.626;9.906;2022-12-24T11:52:20;7.40;99.90
14893;DHT22;7538;53.626;9.906;2022-12-24T11:55:02;7.30;99.90
14893;DHT22;7538;53.626;9.906;2022-12-24T11:57:46;7.40;99.90
14893;DHT22;7538;53.626;9.906;2022-12-24T12:00:16;7.50;99.90
14893;DHT22;7538;53.626;9.906;2022-12-24T12:02:45;9.50;99.90
14893;DHT22;7538;53.626;9.906;2022-12-24T12:05:17;7.50;99.90
14893;DHT22;7538;53.626;9.906;2022-12-24T12:07:47;7.60;99.90
14893;DHT22;7538;53.626;9.906;2022-12-24T12:10:20;7.60;99.90
14893;DHT22;7538;53.626;9.906;2022-12-24T12:12:55;7.60;99.90
14893;DHT22;7538;53.626;9.906;2022-12-24T12:15:24;7.60;99.90
14893;DHT22;7538;53.626;9.906;2022-12-24T12:17:56;7.60;99.90
14893;DHT22;7538;53.626;9.906;2022-12-24T12:20:27;7.60;99.90
14893;DHT22;7538;53.626;9.906;2022-12-24T12:22:59;7.70;99.90
14893;DHT22;7538;53.626;9.906;2022-12-24T12:25:33;7.90;99.90
14893;DHT22;7538;53.626;9.906;2022-12-24T12:28:06;8.10;99.90
14893;DHT22;7538;53.626;9.906;2022-12-24T12:30:34;8.20;99.90
14893;DHT22;7538;53.626;9.906;2022-12-24T12:33:11;8.30;99.90
14893;DHT22;7538;53.626;9.906;2022-12-24T12:35:40;8.40;99.90
14893;DHT22;7538;53.626;9.906;2022-12-24T12:38:11;9.00;99.90
14893;DHT22;7538;53.626;9.906;2022-12-24T12:41:01;8.40;99.90
14893;DHT22;7538;53.626;9.906;2022-12-24T12:43:54;8.40;99.90
14893;DHT22;7538;53.626;9.906;2022-12-24T12:46:30;8.40;99.90
14893;DHT22;7538;53.626;9.906;2022-12-24T12:49:12;8.40;99.90
14893;DHT22;7538;53.626;9.906;2022-12-24T12:51:48;8.40;99.90
14893;DHT22;7538;53.626;9.906;2022-12-24T12:54:27;8.50;99.90
14893;DHT22;7538;53.626;9.906;2022-12-24T12:57:02;8.50;99.90
14893;DHT22;7538;53.626;9.906;2022-12-24T12:59:33;8.60;99.90
14893;DHT22;7538;53.626;9.906;2022-12-24T13:02:16;8.60;99.90
14893;DHT22;7538;53.626;9.906;2022-12-24T13:08:10;8.80;99.90
14893;DHT22;7538;53.626;9.906;2022-12-24T13:11:04;8.90;99.90
14893;DHT22;7538;53.626;9.906;2022-12-24T13:17:17;9.10;99.90
14893;DHT22;7538;53.626;9.906;2022-12-24T13:22:55;9.20;99.90
14893;DHT22;7538;53.626;9.906;2022-12-24T13:25:26;9.30;99.90
14893;DHT22;7538;53.626;9.906;2022-12-24T13:27:55;9.30;99.90
14893;DHT22;7538;53.626;9.906;2022-12-24T13:30:33;9.30;99.90
14893;DHT22;7538;53.626;9.906;2022-12-24T13:33:01;9.30;99.90
14893;DHT22;7538;53.626;9.906;2022-12-24T13:35:31;9.30;99.90
14893;DHT22;7538;53.626;9.906;2022-12-24T13:38:30;9.30;99.90
14893;DHT22;7538;53.626;9.906;2022-12-24T13:44:21;9.30;99.90
14893;DHT22;7538;53.626;9.906;2022-12-24T13:46:56;9.30;99.90
14893;DHT22;7538;53.626;9.906;2022-12-24T13:49:33;9.30;99.90
14893;DHT22;7538;53.626;9.906;2022-12-24T13:52:16;9.30;99.90
14893;DHT22;7538;53.626;9.906;2022-12-24T13:54:47;9.30;99.90
14893;DHT22;7538;53.626;9.906;2022-12-24T13:57:30;9.30;99.90
14893;DHT22;7538;53.626;9.906;2022-12-24T14:00:00;9.30;99.90
14893;DHT22;7538;53.626;9.906;2022-12-24T14:02:32;9.30;99.90
14893;DHT22;7538;53.626;9.906;2022-12-24T14:05:14;9.30;99.90
14893;DHT22;7538;53.626;9.906;2022-12-24T14:07:44;9.40;99.90
14893;DHT22;7538;53.626;9.906;2022-12-24T14:10:20;9.40;99.90
14893;DHT22;7538;53.626;9.906;2022-12-24T14:12:50;9.40;99.90
14893;DHT22;7538;53.626;9.906;2022-12-24T14:15:59;9.40;99.90
14893;DHT22;7538;53.626;9.906;2022-12-24T14:18:27;9.40;99.90
14893;DHT22;7538;53.626;9.906;2022-12-24T14:20:57;9.40;99.90
14893;DHT22;7538;53.626;9.906;2022-12-24T14:23:32;9.50;99.90
14893;DHT22;7538;53.626;9.906;2022-12-24T14:26:01;9.50;99.90
14893;DHT22;7538;53.626;9.906;2022-12-24T14:28:33;9.60;99.90
14893;DHT22;7538;53.626;9.906;2022-12-24T14:31:03;9.50;99.90
14893;DHT22;7538;53.626;9.906;2022-12-24T14:33:31;9.50;99.90
14893;DHT22;7538;53.626;9.906;2022-12-24T14:36:00;9.50;99.90
14893;DHT22;7538;53.626;9.906;2022-12-24T14:38:28;9.50;99.90
14893;DHT22;7538;53.626;9.906;2022-12-24T14:41:12;9.50;99.90
14893;DHT22;7538;53.626;9.906;2022-12-24T14:43:51;9.50;99.90
14893;DHT22;7538;53.626;9.906;2022-12-24T14:46:25;9.50;99.90
14893;DHT22;7538;53.626;9.906;2022-12-24T14:48:57;9.50;99.90
14893;DHT22;7538;53.626;9.906;2022-12-24T14:51:34;9.40;99.90
14893;DHT22;7538;53.626;9.906;2022-12-24T14:54:24;9.40;99.90
14893;DHT22;7538;53.626;9.906;2022-12-24T14:57:10;9.40;99.90
14893;DHT22;7538;53.626;9.906;2022-12-24T14:59:41;9.40;99.90
14893;DHT22;7538;53.626;9.906;2022-12-24T15:02:36;9.30;99.90
14893;DHT22;7538;53.626;9.906;2022-12-24T15:05:12;9.30;99.90
14893;DHT22;7538;53.626;9.906;2022-12-24T15:07:44;9.20;99.90
14893;DHT22;7538;53.626;9.906;2022-12-24T15:10:29;9.10;99.90
14893;DHT22;7538;53.626;9.906;2022-12-24T15:13:00;9.00;99.90
14893;DHT22;7538;53.626;9.906;2022-12-24T15:15:29;9.00;99.90
14893;DHT22;7538;53.626;9.906;2022-12-24T15:17:57;9.00;99.90
14893;DHT22;7538;53.626;9.906;2022-12-24T15:20:26;8.90;99.90
14893;DHT22;7538;53.626;9.906;2022-12-24T15:22:57;8.90;99.90
14893;DHT22;7538;53.626;9.906;2022-12-24T15:25:26;8.90;99.90
14893;DHT22;7538;53.626;9.906;2022-12-24T15:27:53;8.90;99.90
14893;DHT22;7538;53.626;9.906;2022-12-24T15:30:22;9.00;99.90
14893;DHT22;7538;53.626;9.906;2022-12-24T15:32:51;9.00;99.90
14893;DHT22;7538;53.626;9.906;2022-12-24T15:35:47;9.00;99.90
14893;DHT22;7538;53.626;9.906;2022-12-24T15:38:26;9.00;99.90
14893;DHT22;7538;53.626;9.906;2022-12-24T15:40:55;9.00;99.90
14893;DHT22;7538;53.626;9.906;2022-12-24T15:43:23;9.00;99.90
14893;DHT22;7538;53.626;9.906;2022-12-24T15:45:51;9.10;99.90
14893;DHT22;7538;53.626;9.906;2022-12-24T15:48:21;9.10;99.90
14893;DHT22;7538;53.626;9.906;2022-12-24T15:50:51;9.20;99.90
14893;DHT22;7538;53.626;9.906;2022-12-24T15:53:26;9.20;99.90
14893;DHT22;7538;53.626;9.906;2022-12-24T15:56:05;9.20;99.90
14893;DHT22;7538;53.626;9.906;2022-12-24T15:58:34;9.10;99.90
14893;DHT22;7538;53.626;9.906;2022-12-24T16:01:07;9.20;99.90
14893;DHT22;7538;53.626;9.906;2022-12-24T16:03:55;9.20;99.90
14893;DHT22;7538;53.626;9.906;2022-12-24T16:06:22;9.20;99.90
14893;DHT22;7538;53.626;9.906;2022-12-24T16:08:51;9.10;99.90
14893;DHT22;7538;53.626;9.906;2022-12-24T16:11:19;9.20;99.90
14893;DHT22;7538;53.626;9.906;2022-12-24T16:13:58;9.20;99.90
14893;DHT22;7538;53.626;9.906;2022-12-24T16:16:32;9.20;99.90
14893;DHT22;7538;53.626;9.906;2022-12-24T16:18:59;7.40;99.90
14893;DHT22;7538;53.626;9.906;2022-12-24T16:21:30;9.20;99.90
14893;DHT22;7538;53.626;9.906;2022-12-24T16:24:06;9.20;99.90
14893;DHT22;7538;53.626;9.906;2022-12-24T16:26:34;9.30;99.90
14893;DHT22;7538;53.626;9.906;2022-12-24T16:29:02;9.30;99.90
14893;DHT22;7538;53.626;9.906;2022-12-24T16:31:32;9.30;99.90
14893;DHT22;7538;53.626;9.906;2022-12-24T16:34:00;9.30;99.90
14893;DHT22;7538;53.626;9.906;2022-12-24T16:36:28;9.30;99.90
14893;DHT22;7538;53.626;9.906;2022-12-24T16:38:55;9.40;99.90